Time;durP1;ratioP1;P1;durP2;ratioP2;P2;SDS_P1;SDS_P2;PMS_P1;PMS_P2;Temp;Humidity;BMP_temperature;BMP_pressure;BME280_temperature;BME280_humidity;BME280_pressure;Samples;Min_cycle;Max_cycle;Signal;HPM_P1;HPM_P2
2023/03/25 00:00:05;;;;;;;13.40;11.85;;;15.50;59.40;;;;;;4993842;28;20019;-63
2023/03/25 00:02:33;;;;;;;15.23;12.85;;;15.50;60.00;;;;;;4994444;28;20128;-65
2023/03/25 00:05:02;;;;;;;19.98;16.63;;;15.50;59.10;;;;;;4994243;28;20034;-66
2023/03/25 00:07:28;;;;;;;17.17;15.38;;;15.40;60.10;;;;;;4994741;28;20030;-63
2023/03/25 00:09:53;;;;;;;15.13;13.35;;;15.20;61.40;;;;;;4994324;28;20385;-63
2023/03/25 00:12:19;;;;;;;16.45;13.85;;;15.10;60.70;;;;;;4994596;28;20026;-61
2023/03/25 00:14:53;;;;;;;12.65;10.95;;;15.20;60.40;;;;;;4994389;28;20540;-62
2023/03/25 00:17:22;;;;;;;;;;;15.20;60.00;;;;;;4994702;28;20034;-66
2023/03/25 00:19:50;;;;;;;11.32;9.93;;;15.30;59.60;;;;;;4994525;28;20334;-63
2023/03/25 00:22:19;;;;;;;11.60;9.73;;;15.20;59.70;;;;;;4994375;28;20097;-63
2023/03/25 00:24:45;;;;;;;13.25;11.48;;;15.20;60.30;;;;;;4994380;28;20027;-62
2023/03/25 00:27:13;;;;;;;14.40;11.90;;;15.20;60.20;;;;;;4994213;28;20033;-62
2023/03/25 00:29:40;;;;;;;21.33;17.30;;;15.20;60.50;;;;;;4992960;28;20113;-64
2023/03/25 00:32:06;;;;;;;16.05;13.50;;;15.10;61.10;;;;;;4994327;28;20034;-66
2023/03/25 00:34:34;;;;;;;12.82;11.10;;;15.00;60.90;;;;;;4994250;28;20538;-62
2023/03/25 00:37:01;;;;;;;12.30;10.45;;;15.00;60.80;;;;;;4994121;28;20389;-65
2023/03/25 00:39:27;;;;;;;10.93;9.45;;;15.00;60.30;;;;;;4994209;28;20062;-65
2023/03/25 00:41:56;;;;;;;23.58;19.52;;;15.10;60.00;;;;;;4994152;28;20018;-62
2023/03/25 00:44:22;;;;;;;18.92;15.52;;;14.90;61.60;;;;;;4993940;28;20038;-67
2023/03/25 00:46:47;;;;;;;14.90;13.18;;;14.70;62.20;;;;;;4993942;28;20030;-65
2023/03/25 00:49:13;;;;;;;13.45;11.40;;;14.80;61.80;;;;;;4993713;28;20495;-66
2023/03/25 00:51:39;;;;;;;12.52;10.95;;;14.80;61.40;;;;;;4994184;28;20023;-67
2023/03/25 00:54:05;;;;;;;11.15;9.95;;;14.70;61.40;;;;;;4994178;28;20030;-62
2023/03/25 00:56:31;;;;;;;10.75;9.52;;;14.80;61.10;;;;;;4993625;28;20038;-65
2023/03/25 00:58:57;;;;;;;13.50;10.35;;;14.70;61.20;;;;;;4994033;28;20030;-62
2023/03/25 01:01:28;;;;;;;12.05;10.07;;;14.60;61.90;;;;;;4993638;28;20556;-62
2023/03/25 01:03:56;;;;;;;12.27;9.75;;;14.60;62.70;;;;;;4993563;28;20389;-64
2023/03/25 01:06:27;;;;;;;11.05;9.90;;;14.70;62.60;;;;;;4994036;28;20033;-63
2023/03/25 01:08:55;;;;;;;10.15;8.60;;;14.80;62.20;;;;;;4993538;28;20038;-66
2023/03/25 01:11:26;;;;;;;9.90;7.75;;;14.80;61.50;;;;;;4994282;28;20553;-63
2023/03/25 01:13:54;;;;;;;8.80;7.90;;;14.80;61.40;;;;;;4997694;28;20568;-62
2023/03/25 01:16:20;;;;;;;7.68;6.88;;;14.80;61.00;;;;;;4997365;28;20044;-62
2023/03/25 01:18:46;;;;;;;8.15;6.95;;;14.80;61.00;;;;;;4997586;28;20082;-64
2023/03/25 01:21:12;;;;;;;8.43;7.05;;;14.90;61.00;;;;;;4997618;28;20111;-66
2023/03/25 01:23:37;;;;;;;7.47;6.00;;;14.90;61.90;;;;;;4997534;28;20030;-63
2023/03/25 01:26:03;;;;;;;7.60;6.10;;;14.80;62.20;;;;;;4997348;28;20080;-64
2023/03/25 01:28:29;;;;;;;11.45;6.65;;;14.80;61.60;;;;;;4997534;28;20022;-64
2023/03/25 01:31:03;;;;;;;6.47;5.75;;;14.80;61.80;;;;;;4997442;28;20026;-64
2023/03/25 01:33:29;;;;;;;7.07;6.28;;;14.80;61.50;;;;;;4997129;28;20493;-64
2023/03/25 01:35:55;;;;;;;6.63;5.90;;;14.90;61.30;;;;;;4997557;28;20096;-64
2023/03/25 01:38:22;;;;;;;8.27;6.55;;;14.80;61.80;;;;;;4997144;28;20512;-63
2023/03/25 01:40:52;;;;;;;9.05;7.28;;;14.80;61.40;;;;;;4997204;28;20030;-65
2023/03/25 01:43:19;;;;;;;6.95;6.15;;;14.80;61.60;;;;;;4997141;28;20037;-63
2023/03/25 01:45:45;;;;;;;6.95;5.72;;;14.80;61.90;;;;;;4997118;28;20022;-65
2023/03/25 01:48:14;;;;;;;10.20;8.27;;;14.80;61.60;;;;;;4997086;28;20032;-67
2023/03/25 01:50:43;;;;;;;12.23;9.05;;;14.70;62.20;;;;;;4997095;28;20022;-65
2023/03/25 01:53:10;;;;;;;9.82;7.93;;;14.60;62.90;;;;;;4996937;28;20018;-65
2023/03/25 01:55:38;;;;;;;7.82;7.03;;;14.60;62.50;;;;;;4996905;28;20019;-63
2023/03/25 01:58:10;;;;;;;9.35;8.45;;;14.70;62.00;;;;;;4996885;28;20037;-66
2023/03/25 02:00:39;;;;;;;13.85;11.70;;;14.70;61.70;;;;;;4996569;28;20469;-65
2023/03/25 02:03:07;;;;;;;11.32;9.30;;;14.60;62.40;;;;;;4996627;28;20045;-62
2023/03/25 02:05:36;;;;;;;9.25;8.07;;;14.50;63.00;;;;;;4997189;28;20035;-62
2023/03/25 02:08:04;;;;;;;7.65;6.30;;;14.60;61.90;;;;;;4996605;28;20138;-63
2023/03/25 02:10:31;;;;;;;8.35;6.15;;;14.70;61.70;;;;;;4996637;28;20041;-63
2023/03/25 02:12:58;;;;;;;5.97;5.35;;;14.80;61.00;;;;;;4996688;28;20015;-63
2023/03/25 02:15:24;;;;;;;5.90;5.30;;;14.90;61.50;;;;;;4996348;28;20015;-64
2023/03/25 02:18:03;;;;;;;5.45;4.93;;;14.80;61.40;;;;;;4996509;28;20023;-64
2023/03/25 02:21:08;;;;;;;5.32;4.43;;;14.80;60.70;;;;;;4996511;28;20022;-66
2023/03/25 02:24:12;;;;;;;5.00;4.50;;;14.80;62.90;;;;;;4965211;28;20043;-61
2023/03/25 02:27:16;;;;;;;4.82;4.18;;;14.90;61.90;;;;;;4996803;28;20397;-63
2023/03/25 02:30:12;;;;;;;5.95;5.00;;;14.90;61.60;;;;;;4996243;28;20026;-63
2023/03/25 02:32:52;;;;;;;5.47;4.80;;;14.90;61.20;;;;;;4996344;28;20532;-63
2023/03/25 02:35:42;;;;;;;5.25;4.75;;;14.90;61.90;;;;;;4996141;28;20022;-62
2023/03/25 02:38:33;;;;;;;7.70;6.82;;;14.80;60.90;;;;;;4996119;28;20026;-61
2023/03/25 02:41:36;;;;;;;7.57;5.97;;;14.80;60.80;;;;;;4996190;28;20038;-66
2023/03/25 02:44:07;;;;;;;7.10;5.13;;;14.80;61.70;;;;;;4995864;28;20424;-62
2023/03/25 02:46:35;;;;;;;8.15;6.32;;;14.80;61.80;;;;;;4996334;28;20092;-63
2023/03/25 02:49:19;;;;;;;6.85;6.15;;;14.70;61.90;;;;;;4996158;28;20109;-65
2023/03/25 02:52:17;;;;;;;8.18;6.68;;;14.70;62.10;;;;;;4995998;28;20027;-66
2023/03/25 02:54:46;;;;;;;7.22;5.85;;;14.70;62.10;;;;;;4995427;28;20038;-63
2023/03/25 02:57:16;;;;;;;7.55;6.15;;;14.70;62.10;;;;;;4995797;28;20035;-64
2023/03/25 02:59:45;;;;;;;8.00;7.18;;;14.60;61.90;;;;;;4995513;28;20026;-64
2023/03/25 03:02:10;;;;;;;12.55;8.70;;;14.50;63.20;;;;;;4995591;28;20046;-65
2023/03/25 03:04:54;;;;;;;10.82;9.55;;;14.50;63.00;;;;;;4995667;28;20029;-63
2023/03/25 03:07:30;;;;;;;8.30;7.50;;;14.50;63.60;;;;;;4995762;28;20027;-62
2023/03/25 03:10:03;;;;;;;6.85;6.15;;;14.50;64.50;;;;;;4995443;28;20105;-65
2023/03/25 03:12:57;;;;;;;6.78;5.90;;;14.50;63.20;;;;;;4995701;28;20442;-62
2023/03/25 03:15:32;;;;;;;6.00;5.30;;;14.50;63.30;;;;;;4995419;28;20037;-65
2023/03/25 03:18:33;;;;;;;5.70;5.20;;;14.50;64.00;;;;;;4995619;28;20430;-63
2023/03/25 03:21:16;;;;;;;5.47;4.40;;;14.50;63.80;;;;;;4995247;28;20034;-66
2023/03/25 03:23:47;;;;;;;4.55;4.15;;;14.50;63.50;;;;;;4995192;28;20033;-65
2023/03/25 03:26:46;;;;;;;5.47;3.63;;;14.60;63.20;;;;;;4995263;28;20018;-61
2023/03/25 03:29:29;;;;;;;4.30;3.90;;;14.70;63.70;;;;;;4983705;28;20433;-64
2023/03/25 03:32:06;;;;;;;4.07;3.38;;;14.70;62.40;;;;;;4995183;28;20094;-65
2023/03/25 03:35:00;;;;;;;5.03;4.20;;;14.80;61.40;;;;;;4995028;28;20026;-65
2023/03/25 03:37:35;;;;;;;3.67;3.30;;;14.80;62.40;;;;;;4989312;28;20042;-62
2023/03/25 03:40:04;;;;;;;6.93;5.13;;;14.80;62.30;;;;;;4995044;28;20122;-63
2023/03/25 03:42:41;;;;;;;4.47;4.07;;;14.80;62.60;;;;;;4994777;28;20026;-63
2023/03/25 03:45:19;;;;;;;4.80;3.97;;;14.80;62.20;;;;;;4994917;28;20107;-64
2023/03/25 03:47:50;;;;;;;4.63;4.13;;;14.80;62.40;;;;;;4994859;28;20034;-62
2023/03/25 03:50:24;;;;;;;4.45;3.42;;;14.80;62.50;;;;;;4994936;28;20481;-63
2023/03/25 03:53:25;;;;;;;3.88;3.53;;;14.80;62.00;;;;;;4994715;28;20023;-63
2023/03/25 03:56:15;;;;;;;4.28;3.63;;;14.80;62.30;;;;;;4944732;28;20038;-62
2023/03/25 03:58:42;;;;;;;3.60;3.22;;;14.90;62.40;;;;;;4994957;28;20038;-65
2023/03/25 04:01:18;;;;;;;4.00;3.60;;;14.90;62.70;;;;;;4994444;28;20047;-61
2023/03/25 04:03:55;;;;;;;3.60;3.30;;;14.90;62.40;;;;;;4994767;28;20034;-61
2023/03/25 04:06:37;;;;;;;4.32;3.83;;;14.90;62.40;;;;;;4994611;28;20023;-64
2023/03/25 04:09:08;;;;;;;3.90;3.17;;;14.90;62.10;;;;;;4994647;28;20100;-63
2023/03/25 04:11:55;;;;;;;2.97;2.65;;;15.00;61.90;;;;;;4994310;28;20026;-61
2023/03/25 04:14:21;;;;;;;3.40;3.00;;;15.00;62.00;;;;;;4994417;28;20030;-66
2023/03/25 04:16:47;;;;;;;3.63;3.10;;;15.00;62.30;;;;;;4994230;28;20034;-65
2023/03/25 04:19:12;;;;;;;5.00;3.58;;;15.00;62.60;;;;;;4994329;28;20026;-64
2023/03/25 04:21:38;;;;;;;3.53;3.22;;;15.00;61.90;;;;;;4994232;28;20037;-63
2023/03/25 04:24:07;;;;;;;4.13;3.50;;;15.00;62.50;;;;;;4994659;28;20415;-63
2023/03/25 04:26:36;;;;;;;4.53;3.72;;;15.00;62.60;;;;;;4994083;28;20027;-64
2023/03/25 04:29:03;;;;;;;3.67;3.22;;;15.00;62.10;;;;;;4994400;28;20196;-63
2023/03/25 04:31:32;;;;;;;6.57;5.85;;;15.00;62.80;;;;;;4994162;28;20019;-63
2023/03/25 04:33:59;;;;;;;4.80;4.05;;;15.00;63.50;;;;;;4994164;28;20113;-64
2023/03/25 04:36:28;;;;;;;6.80;5.72;;;14.90;63.00;;;;;;4993977;28;20023;-64
2023/03/25 04:38:54;;;;;;;5.68;5.00;;;14.90;62.80;;;;;;4994109;28;20415;-62
2023/03/25 04:41:21;;;;;;;6.47;5.10;;;14.90;62.20;;;;;;4993910;28;20027;-66
2023/03/25 04:43:48;;;;;;;10.52;7.47;;;14.90;63.90;;;;;;4993971;28;20034;-64
2023/03/25 04:46:15;;;;;;;7.72;6.00;;;14.90;65.80;;;;;;4993798;28;20489;-61
2023/03/25 04:48:43;;;;;;;7.13;5.90;;;14.70;67.60;;;;;;4994045;28;20396;-63
2023/03/25 04:51:11;;;;;;;7.40;6.22;;;14.70;67.00;;;;;;4994106;28;20035;-64
2023/03/25 04:53:37;;;;;;;6.88;5.25;;;14.60;67.20;;;;;;4993918;28;20393;-62
2023/03/25 04:56:05;;;;;;;6.38;4.93;;;14.50;67.00;;;;;;4993818;28;20018;-62
2023/03/25 04:58:31;;;;;;;5.30;4.63;;;14.60;68.60;;;;;;4993699;28;20404;-63
2023/03/25 05:01:04;;;;;;;5.38;4.85;;;14.60;68.40;;;;;;4993955;28;20018;-65
2023/03/25 05:03:32;;;;;;;6.80;5.60;;;14.60;69.00;;;;;;4993896;28;20046;-61
2023/03/25 05:05:57;;;;;;;5.35;4.85;;;14.60;69.30;;;;;;4993762;28;20018;-65
2023/03/25 05:08:23;;;;;;;6.82;6.10;;;14.60;69.70;;;;;;4993883;28;20033;-62
2023/03/25 05:10:49;;;;;;;6.07;5.28;;;14.70;70.40;;;;;;4993876;28;20030;-65
2023/03/25 05:13:15;;;;;;;5.55;4.68;;;14.80;70.70;;;;;;4993664;28;20496;-66
2023/03/25 05:15:42;;;;;;;4.90;4.40;;;14.90;70.10;;;;;;4993835;28;20026;-61
2023/03/25 05:18:09;;;;;;;4.55;3.83;;;14.90;69.40;;;;;;4993480;28;20038;-63
2023/03/25 05:20:38;;;;;;;4.65;3.90;;;15.00;70.00;;;;;;4993837;28;20023;-63
2023/03/25 05:23:10;;;;;;;4.30;3.90;;;15.10;70.70;;;;;;4993666;28;20018;-65
2023/03/25 05:25:41;;;;;;;4.43;4.00;;;15.00;69.30;;;;;;4993414;28;20531;-64
2023/03/25 05:28:08;;;;;;;4.60;3.80;;;15.10;69.60;;;;;;4993539;28;20646;-64
2023/03/25 05:30:38;;;;;;;5.00;4.47;;;15.10;69.30;;;;;;4993686;28;20027;-66
2023/03/25 05:33:09;;;;;;;4.60;4.20;;;15.10;69.50;;;;;;4993508;28;20023;-61
2023/03/25 05:35:35;;;;;;;8.63;6.80;;;15.20;68.70;;;;;;4993795;28;20037;-63
2023/03/25 05:38:02;;;;;;;6.07;5.47;;;14.90;69.50;;;;;;4993267;28;20062;-61
2023/03/25 05:40:27;;;;;;;8.25;7.35;;;14.80;71.20;;;;;;4993451;28;20431;-62
2023/03/25 05:42:54;;;;;;;8.02;6.45;;;14.90;70.10;;;;;;4993605;28;20101;-65
2023/03/25 05:45:21;;;;;;;9.73;7.60;;;14.90;71.20;;;;;;4993444;28;20061;-62
2023/03/25 05:47:47;;;;;;;27.52;24.85;;;15.00;71.10;;;;;;4993385;28;20038;-62
2023/03/25 05:50:16;;;;;;;14.95;13.45;;;14.80;72.20;;;;;;4993390;28;20400;-63
2023/03/25 05:52:42;;;;;;;12.38;11.07;;;14.80;72.40;;;;;;4993276;28;20033;-64
2023/03/25 05:55:17;;;;;;;11.20;10.05;;;15.00;71.70;;;;;;4993438;28;20019;-62
2023/03/25 05:57:43;;;;;;;9.48;8.50;;;15.10;73.80;;;;;;4993457;28;20502;-63
2023/03/25 06:00:11;;;;;;;8.82;7.93;;;15.20;72.70;;;;;;4996429;28;20018;-61
2023/03/25 06:02:41;;;;;;;7.85;7.15;;;15.30;72.90;;;;;;4996656;28;20042;-63
2023/03/25 06:05:12;;;;;;;8.35;6.82;;;15.40;71.00;;;;;;4996939;28;20054;-61
2023/03/25 06:07:41;;;;;;;8.32;7.35;;;15.50;71.10;;;;;;4996894;28;20113;-65
2023/03/25 06:10:09;;;;;;;6.80;6.10;;;15.50;70.70;;;;;;4996623;28;20105;-65
2023/03/25 06:12:37;;;;;;;7.82;6.50;;;15.60;72.20;;;;;;4996776;28;20106;-63
2023/03/25 06:15:07;;;;;;;6.78;6.07;;;15.70;70.80;;;;;;4996899;28;20037;-60
2023/03/25 06:17:33;;;;;;;5.55;5.05;;;15.60;73.00;;;;;;4996389;28;20038;-61
2023/03/25 06:20:00;;;;;;;6.10;5.50;;;15.70;72.50;;;;;;4996587;28;20019;-62
2023/03/25 06:22:26;;;;;;;7.32;5.97;;;15.80;71.70;;;;;;4996298;28;20033;-62
2023/03/25 06:24:52;;;;;;;7.03;5.57;;;15.90;70.60;;;;;;4996345;28;20022;-64
2023/03/25 06:27:18;;;;;;;51.20;36.90;;;15.90;71.60;;;;;;4996556;28;20037;-62
2023/03/25 06:29:46;;;;;;;33.20;25.48;;;15.80;74.00;;;;;;4996609;28;20033;-63
2023/03/25 06:32:13;;;;;;;25.52;21.02;;;15.70;76.40;;;;;;4996214;28;20029;-63
2023/03/25 06:34:41;;;;;;;17.50;14.95;;;15.80;73.90;;;;;;4996359;28;20019;-63
2023/03/25 06:37:07;;;;;;;17.00;14.88;;;15.90;74.90;;;;;;4995952;28;20038;-61
2023/03/25 06:39:36;;;;;;;13.95;11.13;;;16.00;73.50;;;;;;4996079;28;20014;-64
2023/03/25 06:42:03;;;;;;;12.93;10.80;;;16.10;75.80;;;;;;4996273;28;20022;-62
2023/03/25 06:44:28;;;;;;;12.43;10.52;;;16.20;74.40;;;;;;4996135;28;20516;-64
2023/03/25 06:46:54;;;;;;;10.57;9.43;;;16.20;73.50;;;;;;4995944;28;20054;-64
2023/03/25 06:49:20;;;;;;;10.32;9.23;;;16.20;74.30;;;;;;4996086;28;20022;-62
2023/03/25 06:51:46;;;;;;;9.40;8.30;;;16.50;75.20;;;;;;4995776;28;20019;-61
2023/03/25 06:54:11;;;;;;;10.35;8.95;;;16.70;74.40;;;;;;4995734;28;20022;-62
2023/03/25 06:56:37;;;;;;;8.50;7.70;;;16.90;72.50;;;;;;4995806;28;20029;-62
2023/03/25 06:59:04;;;;;;;9.30;8.30;;;17.10;71.00;;;;;;4995881;28;20096;-61
2023/03/25 07:01:29;;;;;;;8.60;7.70;;;17.40;72.20;;;;;;4995803;28;20046;-63
2023/03/25 07:03:55;;;;;;;9.35;8.30;;;17.50;70.90;;;;;;4995861;28;20042;-64
2023/03/25 07:06:22;;;;;;;12.70;11.40;;;17.50;70.40;;;;;;4995583;28;20084;-62
2023/03/25 07:08:49;;;;;;;14.55;13.15;;;17.70;69.40;;;;;;4995419;28;20018;-63
2023/03/25 07:11:18;;;;;;;20.58;16.33;;;17.80;67.90;;;;;;4995277;28;20785;-65
2023/03/25 07:13:44;;;;;;;18.23;15.82;;;17.80;70.10;;;;;;4995766;28;20026;-63
2023/03/25 07:16:10;;;;;;;17.95;15.80;;;17.90;68.30;;;;;;4995518;28;20385;-65
2023/03/25 07:18:36;;;;;;;16.65;14.32;;;18.30;69.30;;;;;;4995345;28;20504;-62
2023/03/25 07:21:02;;;;;;;14.75;13.25;;;18.40;64.70;;;;;;4995462;28;20155;-64
2023/03/25 07:23:27;;;;;;;13.77;11.73;;;18.50;64.90;;;;;;4995440;28;20137;-63
2023/03/25 07:25:55;;;;;;;12.43;10.43;;;18.50;63.40;;;;;;4995277;28;20097;-65
2023/03/25 07:28:21;;;;;;;11.73;10.40;;;18.50;64.70;;;;;;4995227;28;20120;-63
2023/03/25 07:30:47;;;;;;;10.35;8.38;;;18.70;65.00;;;;;;4995176;28;20054;-63
2023/03/25 07:33:12;;;;;;;6.90;6.28;;;19.30;62.50;;;;;;4995125;28;20376;-63
2023/03/25 07:35:38;;;;;;;6.88;6.18;;;19.80;63.60;;;;;;4994928;28;20023;-62
2023/03/25 07:38:04;;;;;;;5.88;5.28;;;20.50;60.00;;;;;;4994931;28;20056;-60
2023/03/25 07:40:30;;;;;;;4.20;3.80;;;20.70;59.30;;;;;;4994939;28;20019;-62
2023/03/25 07:42:56;;;;;;;2.63;1.77;;;20.60;59.10;;;;;;4994952;28;20022;-65
2023/03/25 07:45:21;;;;;;;2.03;1.83;;;20.50;57.90;;;;;;4995032;28;20529;-60
2023/03/25 07:47:49;;;;;;;1.35;1.25;;;19.90;58.00;;;;;;4994722;28;20031;-63
2023/03/25 07:50:19;;;;;;;1.33;1.10;;;19.30;60.70;;;;;;4994716;28;20025;-62
2023/03/25 07:52:45;;;;;;;1.00;0.90;;;18.80;61.90;;;;;;4994848;28;20105;-61
2023/03/25 07:55:12;;;;;;;1.25;0.90;;;18.70;63.60;;;;;;4994967;28;20022;-65
2023/03/25 07:57:40;;;;;;;2.00;1.50;;;18.80;64.50;;;;;;4994649;28;20031;-62
2023/03/25 08:00:07;;;;;;;1.27;1.02;;;19.00;65.40;;;;;;4994942;28;20121;-62
2023/03/25 08:02:33;;;;;;;1.75;1.10;;;19.00;63.90;;;;;;4994369;28;20115;-64
2023/03/25 08:04:59;;;;;;;1.38;0.90;;;18.90;65.50;;;;;;4994447;28;20402;-63
2023/03/25 08:07:27;;;;;;;1.25;0.85;;;18.90;66.00;;;;;;4994615;28;20030;-62
2023/03/25 08:09:53;;;;;;;1.50;0.70;;;19.00;65.00;;;;;;4994316;28;20489;-65
2023/03/25 08:12:19;;;;;;;1.35;0.90;;;19.10;64.90;;;;;;4994640;28;20029;-62
2023/03/25 08:14:45;;;;;;;1.08;1.00;;;19.30;64.20;;;;;;4994707;28;20026;-64
2023/03/25 08:17:11;;;;;;;1.10;1.00;;;19.30;63.60;;;;;;4994138;28;20034;-64
2023/03/25 08:19:36;;;;;;;1.25;0.90;;;19.30;64.30;;;;;;4994306;28;20025;-64
2023/03/25 08:22:02;;;;;;;1.40;0.90;;;19.20;65.50;;;;;;4993739;28;20029;-62
2023/03/25 08:24:28;;;;;;;0.77;0.70;;;19.00;66.00;;;;;;4994659;28;20019;-64
2023/03/25 08:26:55;;;;;;;1.17;1.00;;;18.70;66.40;;;;;;4994200;28;20032;-61
2023/03/25 08:29:21;;;;;;;1.00;0.90;;;18.50;66.30;;;;;;4994235;28;20037;-61
2023/03/25 08:31:50;;;;;;;0.93;0.80;;;18.60;66.90;;;;;;4994050;28;20014;-62
2023/03/25 08:34:17;;;;;;;1.42;0.90;;;18.70;69.00;;;;;;4994387;28;20465;-65
2023/03/25 08:36:43;;;;;;;1.30;0.80;;;18.80;67.60;;;;;;4994278;28;20105;-63
2023/03/25 08:39:10;;;;;;;2.10;0.90;;;19.20;67.30;;;;;;4994514;28;20413;-63
2023/03/25 08:41:39;;;;;;;1.40;0.93;;;19.50;68.20;;;;;;4993910;28;20457;-64
2023/03/25 08:44:06;;;;;;;1.83;0.95;;;19.50;66.40;;;;;;4994284;28;20030;-64
2023/03/25 08:46:32;;;;;;;1.50;0.90;;;19.90;66.50;;;;;;4993797;28;20023;-64
2023/03/25 08:48:57;;;;;;;0.70;0.70;;;20.00;67.80;;;;;;4994153;28;20046;-64
2023/03/25 08:51:23;;;;;;;0.82;0.73;;;20.50;67.60;;;;;;4994078;28;20019;-63
2023/03/25 08:53:49;;;;;;;0.65;0.65;;;21.50;64.20;;;;;;4994014;28;20031;-64
2023/03/25 08:56:15;;;;;;;0.70;0.70;;;22.10;60.90;;;;;;4993766;28;20026;-63
2023/03/25 08:58:41;;;;;;;0.60;0.50;;;22.60;61.50;;;;;;4993835;28;20062;-62
2023/03/25 09:01:06;;;;;;;1.85;0.52;;;22.30;57.80;;;;;;4993386;28;20030;-62
2023/03/25 09:03:32;;;;;;;0.70;0.70;;;22.40;58.00;;;;;;4993891;28;20125;-65
2023/03/25 09:06:03;;;;;;;0.88;0.70;;;22.20;57.20;;;;;;4993784;28;20159;-62
2023/03/25 09:08:29;;;;;;;0.70;0.70;;;22.20;60.30;;;;;;4993796;28;20046;-65
2023/03/25 09:10:55;;;;;;;0.80;0.80;;;22.50;59.10;;;;;;4993676;28;20461;-64
2023/03/25 09:13:21;;;;;;;0.70;0.70;;;23.00;57.90;;;;;;4993893;28;20022;-62
2023/03/25 09:15:47;;;;;;;0.60;0.60;;;23.20;56.80;;;;;;4993451;28;20022;-66
2023/03/25 09:18:13;;;;;;;0.45;0.45;;;23.40;57.00;;;;;;4993682;28;20065;-65
2023/03/25 09:20:40;;;;;;;0.50;0.50;;;23.60;56.30;;;;;;4993633;28;20026;-62
2023/03/25 09:23:06;;;;;;;0.50;0.45;;;23.60;55.90;;;;;;4993765;28;20461;-61
2023/03/25 09:25:32;;;;;;;0.40;0.40;;;23.00;55.10;;;;;;4993652;28;20485;-65
2023/03/25 09:27:57;;;;;;;0.40;0.40;;;22.80;55.20;;;;;;4993577;28;20094;-63
2023/03/25 09:30:23;;;;;;;0.70;0.70;;;22.70;54.70;;;;;;4993419;28;20041;-63
2023/03/25 09:32:49;;;;;;;1.38;0.60;;;23.00;55.20;;;;;;4994902;28;20027;-66
2023/03/25 09:35:14;;;;;;;0.77;0.70;;;23.00;54.10;;;;;;4997342;28;20101;-63
2023/03/25 09:37:40;;;;;;;1.23;0.60;;;22.90;53.70;;;;;;4997371;28;20035;-65
2023/03/25 09:40:06;;;;;;;0.65;0.65;;;23.20;53.60;;;;;;4997570;28;20029;-62
2023/03/25 09:42:54;;;;;;;0.50;0.40;;;23.50;53.00;;;;;;4997160;28;20026;-64
2023/03/25 09:45:39;;;;;;;0.60;0.60;;;23.70;52.70;;;;;;4997007;28;20480;-63
2023/03/25 09:48:21;;;;;;;0.75;0.60;;;24.00;54.10;;;;;;4997122;28;20065;-64
2023/03/25 09:50:47;;;;;;;0.50;0.50;;;24.20;52.30;;;;;;4997201;28;20018;-66
2023/03/25 09:53:19;;;;;;;0.57;0.57;;;23.90;54.20;;;;;;4997043;28;20384;-64
2023/03/25 09:55:46;;;;;;;0.80;0.60;;;23.90;52.10;;;;;;4997117;28;20018;-61
2023/03/25 09:58:24;;;;;;;0.60;0.60;;;24.50;52.90;;;;;;4996904;28;20488;-66
2023/03/25 10:01:07;;;;;;;0.70;0.70;;;24.60;50.30;;;;;;4997003;28;20058;-61
2023/03/25 10:04:11;;;;;;;0.70;0.70;;;24.90;49.20;;;;;;4996864;28;20145;-64
2023/03/25 10:06:50;;;;;;;0.60;0.60;;;25.30;51.60;;;;;;4994146;28;20780;-62
2023/03/25 10:09:41;;;;;;;0.70;0.70;;;25.20;48.30;;;;;;4996739;28;20033;-63
2023/03/25 10:12:34;;;;;;;0.77;0.77;;;24.60;48.90;;;;;;4996668;28;20030;-65
2023/03/25 10:15:18;;;;;;;1.20;0.70;;;24.20;51.40;;;;;;4996440;28;20138;-64
2023/03/25 10:18:20;;;;;;;0.63;0.63;;;24.00;49.40;;;;;;4996559;28;20041;-63
2023/03/25 10:21:09;;;;;;;0.70;0.70;;;23.70;48.70;;;;;;4996554;28;20022;-62
2023/03/25 10:23:42;;;;;;;0.82;0.68;;;23.30;50.30;;;;;;4996454;28;20027;-61
2023/03/25 10:26:20;;;;;;;0.80;0.80;;;23.10;51.10;;;;;;4996495;28;20050;-62
2023/03/25 10:28:56;;;;;;;0.65;0.60;;;23.20;51.30;;;;;;4996189;28;20026;-64
2023/03/25 10:31:27;;;;;;;0.60;0.60;;;23.10;51.80;;;;;;4996651;28;20031;-61
2023/03/25 10:34:03;;;;;;;0.60;0.60;;;23.10;51.00;;;;;;4996602;28;20030;-66
2023/03/25 10:36:35;;;;;;;1.15;0.93;;;23.30;51.10;;;;;;4996301;28;20433;-65
2023/03/25 10:39:03;;;;;;;0.60;0.60;;;23.40;51.00;;;;;;4996217;28;20026;-61
2023/03/25 10:41:38;;;;;;;0.85;0.55;;;23.60;50.80;;;;;;4996145;28;20019;-65
2023/03/25 10:44:10;;;;;;;1.88;0.70;;;23.80;51.20;;;;;;4995147;28;20023;-65
2023/03/25 10:46:48;;;;;;;0.70;0.68;;;23.90;50.30;;;;;;4996391;28;20022;-64
2023/03/25 10:49:24;;;;;;;0.95;0.60;;;23.90;51.30;;;;;;4996304;28;20035;-64
2023/03/25 10:51:53;;;;;;;0.70;0.70;;;23.70;49.30;;;;;;4996048;28;20022;-65
2023/03/25 10:54:21;;;;;;;0.70;0.70;;;24.20;49.70;;;;;;4996103;28;20037;-63
2023/03/25 10:56:51;;;;;;;1.48;0.70;;;24.70;51.20;;;;;;4995812;28;20126;-63
2023/03/25 10:59:23;;;;;;;0.77;0.77;;;24.80;49.50;;;;;;4995843;28;20480;-62
2023/03/25 11:01:51;;;;;;;1.00;0.90;;;25.00;50.00;;;;;;4995700;28;20066;-63
2023/03/25 11:04:19;;;;;;;0.77;0.77;;;25.30;53.80;;;;;;4995745;28;20022;-61
2023/03/25 11:06:51;;;;;;;0.77;0.77;;;25.80;47.80;;;;;;4995682;28;20022;-61
2023/03/25 11:09:31;;;;;;;0.80;0.80;;;26.10;53.00;;;;;;4995628;28;20030;-66
2023/03/25 11:12:01;;;;;;;1.52;0.80;;;26.40;52.60;;;;;;4995256;28;20173;-62
2023/03/25 11:14:28;;;;;;;1.00;0.88;;;26.10;49.10;;;;;;4995684;28;20015;-61
2023/03/25 11:17:02;;;;;;;0.85;0.85;;;26.00;47.40;;;;;;4995567;28;20027;-66
2023/03/25 11:19:39;;;;;;;1.38;0.90;;;25.90;45.30;;;;;;4995459;28;20476;-65
2023/03/25 11:22:35;;;;;;;1.15;1.05;;;25.60;45.40;;;;;;4995481;28;20018;-61
2023/03/25 11:25:11;;;;;;;1.30;0.73;;;25.60;48.40;;;;;;4994052;28;20034;-64
2023/03/25 11:27:51;;;;;;;1.10;0.80;;;25.90;50.50;;;;;;4995107;28;20030;-65
2023/03/25 11:30:19;;;;;;;0.80;0.75;;;26.20;50.50;;;;;;4995527;28;20026;-64
2023/03/25 11:33:02;;;;;;;1.08;0.68;;;26.40;49.20;;;;;;4995185;28;20033;-64
2023/03/25 11:35:30;;;;;;;1.23;1.13;;;26.50;45.80;;;;;;4995494;28;20137;-63
2023/03/25 11:37:59;;;;;;;0.95;0.90;;;26.50;44.80;;;;;;4995045;28;20555;-66
2023/03/25 11:40:27;;;;;;;0.85;0.85;;;26.20;44.00;;;;;;4994785;28;20026;-65
2023/03/25 11:43:01;;;;;;;1.00;1.00;;;26.00;45.40;;;;;;4994959;28;20501;-63
2023/03/25 11:45:44;;;;;;;0.90;0.73;;;26.10;45.40;;;;;;4995010;28;20157;-62
2023/03/25 11:48:28;;;;;;;1.23;1.10;;;26.00;44.90;;;;;;4995056;28;20500;-65
2023/03/25 11:50:58;;;;;;;0.93;0.90;;;25.70;44.00;;;;;;4994859;28;20097;-63
2023/03/25 11:53:26;;;;;;;0.80;0.80;;;25.60;47.30;;;;;;4994852;28;20361;-65
2023/03/25 11:56:03;;;;;;;0.82;0.82;;;25.70;47.80;;;;;;4993826;28;20022;-66
2023/03/25 11:58:32;;;;;;;1.30;0.95;;;26.00;46.60;;;;;;4994543;28;20500;-62
2023/03/25 12:01:05;;;;;;;1.08;0.98;;;26.00;46.00;;;;;;4994668;28;20061;-64
2023/03/25 12:03:33;;;;;;;0.90;0.80;;;26.30;44.10;;;;;;4994938;28;20497;-64
2023/03/25 12:06:27;;;;;;;0.80;0.80;;;26.10;43.40;;;;;;4994863;28;20384;-63
2023/03/25 12:08:57;;;;;;;1.27;0.80;;;26.30;45.90;;;;;;4992123;28;20046;-65
2023/03/25 12:11:32;;;;;;;0.70;0.70;;;26.30;46.10;;;;;;4994305;28;20481;-63
2023/03/25 12:14:07;;;;;;;0.65;0.65;;;26.70;46.60;;;;;;4994808;28;20420;-63
2023/03/25 12:17:08;;;;;;;0.60;0.60;;;27.00;45.70;;;;;;4994389;28;20033;-61
2023/03/25 12:19:56;;;;;;;0.80;0.70;;;27.50;43.90;;;;;;4964268;28;20039;-65
2023/03/25 12:22:27;;;;;;;0.82;0.82;;;28.00;42.80;;;;;;4994437;28;20380;-64
2023/03/25 12:25:14;;;;;;;0.80;0.80;;;27.90;45.70;;;;;;4994102;28;20026;-63
2023/03/25 12:27:42;;;;;;;1.58;0.88;;;27.80;43.80;;;;;;4994290;28;20050;-66
2023/03/25 12:30:41;;;;;;;0.80;0.80;;;27.70;44.70;;;;;;4994191;28;20030;-68
2023/03/25 12:33:27;;;;;;;1.10;0.63;;;27.60;43.80;;;;;;4994096;28;20033;-66
2023/03/25 12:36:16;;;;;;;0.70;0.70;;;27.70;44.90;;;;;;4994162;28;20031;-64
2023/03/25 12:38:55;;;;;;;0.75;0.75;;;28.10;47.00;;;;;;4993909;28;20125;-67
2023/03/25 12:41:46;;;;;;;0.73;0.73;;;28.30;45.00;;;;;;4994085;28;20473;-65
2023/03/25 12:44:18;;;;;;;1.10;0.75;;;28.50;43.70;;;;;;4994315;28;20030;-66
2023/03/25 12:46:52;;;;;;;1.90;0.90;;;29.00;45.30;;;;;;4993980;28;20173;-60
2023/03/25 12:49:46;;;;;;;0.93;0.82;;;29.40;43.80;;;;;;4994007;28;20465;-60
2023/03/25 12:52:50;;;;;;;0.60;0.60;;;29.30;41.80;;;;;;4993939;28;20422;-59
2023/03/25 12:55:21;;;;;;;0.68;0.68;;;29.40;40.90;;;;;;4960977;28;20096;-64
2023/03/25 12:58:24;;;;;;;0.60;0.60;;;29.10;42.30;;;;;;4993793;28;20397;-60
2023/03/25 13:01:09;;;;;;;0.50;0.50;;;29.00;42.30;;;;;;4994007;28;20038;-65
2023/03/25 13:03:51;;;;;;;0.80;0.80;;;28.40;42.40;;;;;;4993721;28;20062;-64
2023/03/25 13:06:57;;;;;;;0.80;0.80;;;27.90;42.80;;;;;;4993847;28;20040;-66